sensor_id;sensor_type;location;lat;lon;timestamp;temperature;humidity
55008;DHT22;40902;45.116;21.296;2023-03-12T00:00:50;77.10;2227.20
55008;DHT22;40902;45.116;21.296;2023-03-12T00:03:16;77.00;2227.20
55008;DHT22;40902;45.116;21.296;2023-03-12T00:05:43;77.00;2227.20
55008;DHT22;40902;45.116;21.296;2023-03-12T00:08:09;77.20;2227.20
55008;DHT22;40902;45.116;21.296;2023-03-12T00:10:38;77.10;2227.20
55008;DHT22;40902;45.116;21.296;2023-03-12T00:13:04;77.10;2227.20
55008;DHT22;40902;45.116;21.296;2023-03-12T00:15:30;77.10;2227.20
55008;DHT22;40902;45.116;21.296;2023-03-12T00:17:56;77.20;2227.20
55008;DHT22;40902;45.116;21.296;2023-03-12T00:20:22;77.20;2227.20
55008;DHT22;40902;45.116;21.296;2023-03-12T00:22:48;77.20;2227.20
55008;DHT22;40902;45.116;21.296;2023-03-12T00:25:15;77.20;2227.20
55008;DHT22;40902;45.116;21.296;2023-03-12T00:27:41;77.10;2227.20
55008;DHT22;40902;45.116;21.296;2023-03-12T00:30:08;77.20;2227.20
55008;DHT22;40902;45.116;21.296;2023-03-12T00:32:35;77.20;2227.20
55008;DHT22;40902;45.116;21.296;2023-03-12T00:35:01;77.10;2227.20
55008;DHT22;40902;45.116;21.296;2023-03-12T00:37:27;77.20;2227.20
55008;DHT22;40902;45.116;21.296;2023-03-12T00:39:53;77.10;2227.20
55008;DHT22;40902;45.116;21.296;2023-03-12T00:42:19;77.00;2227.20
55008;DHT22;40902;45.116;21.296;2023-03-12T00:44:45;76.80;2227.20
55008;DHT22;40902;45.116;21.296;2023-03-12T00:47:11;76.80;2227.20
55008;DHT22;40902;45.116;21.296;2023-03-12T00:49:37;52.10;2227.20
55008;DHT22;40902;45.116;21.296;2023-03-12T00:52:04;52.10;2227.20
55008;DHT22;40902;45.116;21.296;2023-03-12T00:54:30;52.10;2227.20
55008;DHT22;40902;45.116;21.296;2023-03-12T00:56:56;52.10;2227.20
55008;DHT22;40902;45.116;21.296;2023-03-12T00:59:21;52.00;2227.20
55008;DHT22;40902;45.116;21.296;2023-03-12T01:01:47;76.80;2227.20
55008;DHT22;40902;45.116;21.296;2023-03-12T01:04:13;52.00;2227.20
55008;DHT22;40902;45.116;21.296;2023-03-12T01:06:39;52.00;2227.20
55008;DHT22;40902;45.116;21.296;2023-03-12T01:09:06;51.90;2227.20
55008;DHT22;40902;45.116;21.296;2023-03-12T01:11:32;51.90;2227.20
55008;DHT22;40902;45.116;21.296;2023-03-12T01:14:02;51.90;2227.20
55008;DHT22;40902;45.116;21.296;2023-03-12T01:16:28;51.80;2227.20
55008;DHT22;40902;45.116;21.296;2023-03-12T01:18:56;51.90;2227.20
55008;DHT22;40902;45.116;21.296;2023-03-12T01:21:22;52.00;2227.20
55008;DHT22;40902;45.116;21.296;2023-03-12T01:23:48;52.00;2227.20
55008;DHT22;40902;45.116;21.296;2023-03-12T01:26:14;52.00;2227.20
55008;DHT22;40902;45.116;21.296;2023-03-12T01:28:40;51.90;2227.20
55008;DHT22;40902;45.116;21.296;2023-03-12T01:31:07;52.00;2227.20
55008;DHT22;40902;45.116;21.296;2023-03-12T01:33:33;52.00;2227.20
55008;DHT22;40902;45.116;21.296;2023-03-12T01:35:59;52.00;2227.20
55008;DHT22;40902;45.116;21.296;2023-03-12T01:38:24;52.10;2227.20
55008;DHT22;40902;45.116;21.296;2023-03-12T01:40:50;52.10;2227.20
55008;DHT22;40902;45.116;21.296;2023-03-12T01:43:26;52.10;2227.20
55008;DHT22;40902;45.116;21.296;2023-03-12T01:48:39;51.90;2227.20
55008;DHT22;40902;45.116;21.296;2023-03-12T01:51:08;52.00;2227.20
55008;DHT22;40902;45.116;21.296;2023-03-12T01:53:35;52.00;2227.20
55008;DHT22;40902;45.116;21.296;2023-03-12T01:56:02;52.00;2227.20
55008;DHT22;40902;45.116;21.296;2023-03-12T01:58:29;52.00;2227.20
55008;DHT22;40902;45.116;21.296;2023-03-12T02:00:57;51.90;2227.20
55008;DHT22;40902;45.116;21.296;2023-03-12T02:03:23;51.90;2227.20
55008;DHT22;40902;45.116;21.296;2023-03-12T02:05:55;51.90;2227.20
55008;DHT22;40902;45.116;21.296;2023-03-12T02:08:23;51.90;2227.20
55008;DHT22;40902;45.116;21.296;2023-03-12T02:10:49;51.90;2227.20
55008;DHT22;40902;45.116;21.296;2023-03-12T02:13:15;51.90;2227.20
55008;DHT22;40902;45.116;21.296;2023-03-12T02:15:41;51.90;2227.20
55008;DHT22;40902;45.116;21.296;2023-03-12T02:18:10;51.90;2227.20
55008;DHT22;40902;45.116;21.296;2023-03-12T02:24:05;51.90;2227.20
55008;DHT22;40902;45.116;21.296;2023-03-12T02:26:33;52.00;2227.20
55008;DHT22;40902;45.116;21.296;2023-03-12T02:29:00;52.00;2227.20
55008;DHT22;40902;45.116;21.296;2023-03-12T02:31:30;52.00;2227.20
55008;DHT22;40902;45.116;21.296;2023-03-12T02:33:57;52.10;2227.20
55008;DHT22;40902;45.116;21.296;2023-03-12T02:36:25;52.00;2227.20
55008;DHT22;40902;45.116;21.296;2023-03-12T02:38:52;52.10;2227.20
55008;DHT22;40902;45.116;21.296;2023-03-12T02:44:16;76.90;2227.20
55008;DHT22;40902;45.116;21.296;2023-03-12T02:46:47;76.90;2227.20
55008;DHT22;40902;45.116;21.296;2023-03-12T02:49:14;76.80;2227.20
55008;DHT22;40902;45.116;21.296;2023-03-12T02:51:41;76.80;2227.20
55008;DHT22;40902;45.116;21.296;2023-03-12T02:54:07;76.80;2227.20
55008;DHT22;40902;45.116;21.296;2023-03-12T02:56:33;76.80;2227.20
55008;DHT22;40902;45.116;21.296;2023-03-12T02:58:59;77.00;2227.20
55008;DHT22;40902;45.116;21.296;2023-03-12T03:01:25;77.00;2227.20
55008;DHT22;40902;45.116;21.296;2023-03-12T03:03:51;77.00;2227.20
55008;DHT22;40902;45.116;21.296;2023-03-12T03:06:17;77.10;2227.20
55008;DHT22;40902;45.116;21.296;2023-03-12T03:08:43;77.00;2227.20
55008;DHT22;40902;45.116;21.296;2023-03-12T03:11:09;77.10;2227.20
55008;DHT22;40902;45.116;21.296;2023-03-12T03:13:35;77.10;2227.20
55008;DHT22;40902;45.116;21.296;2023-03-12T03:16:01;77.10;2227.20
55008;DHT22;40902;45.116;21.296;2023-03-12T03:18:29;77.10;2227.20
55008;DHT22;40902;45.116;21.296;2023-03-12T03:21:03;77.20;2227.20
55008;DHT22;40902;45.116;21.296;2023-03-12T03:23:29;77.20;2227.20
55008;DHT22;40902;45.116;21.296;2023-03-12T03:25:55;77.20;2227.20
55008;DHT22;40902;45.116;21.296;2023-03-12T03:28:23;77.20;2227.20
55008;DHT22;40902;45.116;21.296;2023-03-12T03:30:52;77.20;2227.20
55008;DHT22;40902;45.116;21.296;2023-03-12T03:33:18;77.20;2227.20
55008;DHT22;40902;45.116;21.296;2023-03-12T03:35:44;77.20;2227.20
55008;DHT22;40902;45.116;21.296;2023-03-12T03:38:09;77.30;2227.20
55008;DHT22;40902;45.116;21.296;2023-03-12T03:40:35;77.20;2227.20
55008;DHT22;40902;45.116;21.296;2023-03-12T03:43:01;77.20;2227.20
55008;DHT22;40902;45.116;21.296;2023-03-12T03:45:26;77.20;2227.20
55008;DHT22;40902;45.116;21.296;2023-03-12T03:47:52;77.30;2227.20
55008;DHT22;40902;45.116;21.296;2023-03-12T03:50:18;77.30;2227.20
55008;DHT22;40902;45.116;21.296;2023-03-12T03:52:44;77.30;2227.20
55008;DHT22;40902;45.116;21.296;2023-03-12T03:55:10;77.40;2227.20
55008;DHT22;40902;45.116;21.296;2023-03-12T03:57:36;77.50;2227.20
55008;DHT22;40902;45.116;21.296;2023-03-12T04:00:02;77.60;2227.20
55008;DHT22;40902;45.116;21.296;2023-03-12T04:02:29;77.60;2227.20
55008;DHT22;40902;45.116;21.296;2023-03-12T04:04:58;77.60;2227.20
55008;DHT22;40902;45.116;21.296;2023-03-12T04:07:24;77.60;2227.20
55008;DHT22;40902;45.116;21.296;2023-03-12T04:09:50;77.50;2227.20
55008;DHT22;40902;45.116;21.296;2023-03-12T04:12:16;77.50;2227.20
55008;DHT22;40902;45.116;21.296;2023-03-12T04:14:42;77.60;2227.20
55008;DHT22;40902;45.116;21.296;2023-03-12T04:17:07;77.60;2227.20
55008;DHT22;40902;45.116;21.296;2023-03-12T04:19:33;77.70;2227.20
55008;DHT22;40902;45.116;21.296;2023-03-12T04:22:00;77.70;2227.20
55008;DHT22;40902;45.116;21.296;2023-03-12T04:24:25;102.40;2227.20
55008;DHT22;40902;45.116;21.296;2023-03-12T04:26:51;102.60;2227.20
55008;DHT22;40902;45.116;21.296;2023-03-12T04:29:18;102.40;2227.20
55008;DHT22;40902;45.116;21.296;2023-03-12T04:31:44;102.40;2227.20
55008;DHT22;40902;45.116;21.296;2023-03-12T04:34:10;102.50;2227.20
55008;DHT22;40902;45.116;21.296;2023-03-12T04:36:36;102.50;2227.20
55008;DHT22;40902;45.116;21.296;2023-03-12T04:39:02;102.50;2227.20
55008;DHT22;40902;45.116;21.296;2023-03-12T04:41:32;102.50;2227.20
55008;DHT22;40902;45.116;21.296;2023-03-12T04:43:58;102.40;2227.20
55008;DHT22;40902;45.116;21.296;2023-03-12T04:46:23;102.50;2227.20
55008;DHT22;40902;45.116;21.296;2023-03-12T04:48:49;102.50;2227.20
55008;DHT22;40902;45.116;21.296;2023-03-12T04:51:15;102.40;2227.20
55008;DHT22;40902;45.116;21.296;2023-03-12T04:53:40;102.40;2227.20
55008;DHT22;40902;45.116;21.296;2023-03-12T04:56:07;102.40;2227.20
55008;DHT22;40902;45.116;21.296;2023-03-12T04:58:32;102.50;2227.20
55008;DHT22;40902;45.116;21.296;2023-03-12T05:00:58;102.50;2227.20
55008;DHT22;40902;45.116;21.296;2023-03-12T05:03:24;102.60;2227.20
55008;DHT22;40902;45.116;21.296;2023-03-12T05:05:50;102.60;2227.20
55008;DHT22;40902;45.116;21.296;2023-03-12T05:08:16;102.60;2227.20
55008;DHT22;40902;45.116;21.296;2023-03-12T05:10:41;102.50;2227.20
55008;DHT22;40902;45.116;21.296;2023-03-12T05:13:18;102.50;2227.20
55008;DHT22;40902;45.116;21.296;2023-03-12T05:15:46;102.60;2227.20
55008;DHT22;40902;45.116;21.296;2023-03-12T05:18:15;102.50;2227.20
55008;DHT22;40902;45.116;21.296;2023-03-12T05:20:40;77.70;2227.20
55008;DHT22;40902;45.116;21.296;2023-03-12T05:35:17;102.90;2227.20
55008;DHT22;40902;45.116;21.296;2023-03-12T05:37:43;102.80;2227.20
55008;DHT22;40902;45.116;21.296;2023-03-12T05:40:10;103.00;2227.20
55008;DHT22;40902;45.116;21.296;2023-03-12T05:49:55;128.00;2252.80
55008;DHT22;40902;45.116;21.296;2023-03-12T05:52:21;103.10;2227.20
55008;DHT22;40902;45.116;21.296;2023-03-12T05:54:47;103.10;2227.20
55008;DHT22;40902;45.116;21.296;2023-03-12T05:57:13;103.10;2227.20
55008;DHT22;40902;45.116;21.296;2023-03-12T05:59:38;128.00;2252.80
55008;DHT22;40902;45.116;21.296;2023-03-12T06:02:04;128.50;2252.80
55008;DHT22;40902;45.116;21.296;2023-03-12T06:04:31;128.20;2252.80
55008;DHT22;40902;45.116;21.296;2023-03-12T06:06:57;128.20;2252.80
55008;DHT22;40902;45.116;21.296;2023-03-12T06:09:22;128.20;2252.80
55008;DHT22;40902;45.116;21.296;2023-03-12T06:11:48;128.30;2252.80
55008;DHT22;40902;45.116;21.296;2023-03-12T06:14:14;128.00;2252.80
55008;DHT22;40902;45.116;21.296;2023-03-12T06:16:40;103.20;2227.20
55008;DHT22;40902;45.116;21.296;2023-03-12T06:19:05;103.10;2227.20
55008;DHT22;40902;45.116;21.296;2023-03-12T06:21:34;103.10;2227.20
55008;DHT22;40902;45.116;21.296;2023-03-12T06:24:00;103.10;2227.20
55008;DHT22;40902;45.116;21.296;2023-03-12T06:26:26;103.10;2227.20
55008;DHT22;40902;45.116;21.296;2023-03-12T06:28:52;103.20;2227.20
55008;DHT22;40902;45.116;21.296;2023-03-12T06:31:19;102.80;2227.20
55008;DHT22;40902;45.116;21.296;2023-03-12T06:33:45;102.60;2227.20
55008;DHT22;40902;45.116;21.296;2023-03-12T06:36:11;102.60;2227.20
55008;DHT22;40902;45.116;21.296;2023-03-12T06:38:37;102.70;2227.20
55008;DHT22;40902;45.116;21.296;2023-03-12T06:41:06;102.70;2227.20
55008;DHT22;40902;45.116;21.296;2023-03-12T06:43:35;102.60;2227.20
55008;DHT22;40902;45.116;21.296;2023-03-12T06:46:01;102.60;2227.20
55008;DHT22;40902;45.116;21.296;2023-03-12T06:48:30;102.80;2227.20
55008;DHT22;40902;45.116;21.296;2023-03-12T06:50:58;102.80;2227.20
55008;DHT22;40902;45.116;21.296;2023-03-12T06:53:24;102.80;2227.20
55008;DHT22;40902;45.116;21.296;2023-03-12T06:55:50;102.80;2227.20
55008;DHT22;40902;45.116;21.296;2023-03-12T06:58:16;102.90;2227.20
55008;DHT22;40902;45.116;21.296;2023-03-12T07:05:34;128.20;2252.80
55008;DHT22;40902;45.116;21.296;2023-03-12T07:10:27;128.30;2252.80
55008;DHT22;40902;45.116;21.296;2023-03-12T07:12:54;103.20;2227.20
55008;DHT22;40902;45.116;21.296;2023-03-12T07:34:49;128.40;2252.80
55008;DHT22;40902;45.116;21.296;2023-03-12T07:37:15;128.20;2252.80
55008;DHT22;40902;45.116;21.296;2023-03-12T07:39:40;128.10;2252.80
55008;DHT22;40902;45.116;21.296;2023-03-12T07:42:06;128.20;2252.80
55008;DHT22;40902;45.116;21.296;2023-03-12T07:44:32;128.20;2252.80
55008;DHT22;40902;45.116;21.296;2023-03-12T07:54:17;128.40;2252.80
55008;DHT22;40902;45.116;21.296;2023-03-12T07:56:43;128.00;2252.80
55008;DHT22;40902;45.116;21.296;2023-03-12T07:59:09;128.00;2252.80
55008;DHT22;40902;45.116;21.296;2023-03-12T08:01:34;128.10;2252.80
55008;DHT22;40902;45.116;21.296;2023-03-12T08:04:01;128.20;2252.80
55008;DHT22;40902;45.116;21.296;2023-03-12T08:06:28;128.90;2252.80
55008;DHT22;40902;45.116;21.296;2023-03-12T08:08:54;128.40;2252.80
55008;DHT22;40902;45.116;21.296;2023-03-12T08:11:20;128.50;2252.80
55008;DHT22;40902;45.116;21.296;2023-03-12T08:13:45;128.80;2252.80
55008;DHT22;40902;45.116;21.296;2023-03-12T08:16:11;128.90;2252.80
55008;DHT22;40902;45.116;21.296;2023-03-12T08:18:39;153.70;2252.80
55008;DHT22;40902;45.116;21.296;2023-03-12T08:21:05;153.90;2252.80
55008;DHT22;40902;45.116;21.296;2023-03-12T08:23:30;153.90;2252.80
55008;DHT22;40902;45.116;21.296;2023-03-12T08:25:57;154.00;2252.80
55008;DHT22;40902;45.116;21.296;2023-03-12T08:28:23;154.10;2252.80
55008;DHT22;40902;45.116;21.296;2023-03-12T08:30:54;154.10;2252.80
55008;DHT22;40902;45.116;21.296;2023-03-12T08:33:21;154.00;2252.80
55008;DHT22;40902;45.116;21.296;2023-03-12T08:35:48;153.90;2252.80
55008;DHT22;40902;45.116;21.296;2023-03-12T08:38:14;153.90;2252.80
55008;DHT22;40902;45.116;21.296;2023-03-12T08:40:40;154.00;2252.80
55008;DHT22;40902;45.116;21.296;2023-03-12T08:43:05;154.00;2252.80
55008;DHT22;40902;45.116;21.296;2023-03-12T08:45:32;154.00;2252.80
55008;DHT22;40902;45.116;21.296;2023-03-12T08:48:04;154.00;2252.80
55008;DHT22;40902;45.116;21.296;2023-03-12T08:50:30;154.30;2252.80
55008;DHT22;40902;45.116;21.296;2023-03-12T08:52:57;154.10;2252.80
55008;DHT22;40902;45.116;21.296;2023-03-12T08:55:24;154.20;2252.80
55008;DHT22;40902;45.116;21.296;2023-03-12T08:57:50;154.30;2252.80
55008;DHT22;40902;45.116;21.296;2023-03-12T09:00:16;154.20;2252.80
55008;DHT22;40902;45.116;21.296;2023-03-12T09:02:43;154.20;2252.80
55008;DHT22;40902;45.116;21.296;2023-03-12T09:05:09;154.20;2252.80
55008;DHT22;40902;45.116;21.296;2023-03-12T09:07:36;154.20;2252.80
55008;DHT22;40902;45.116;21.296;2023-03-12T09:10:03;153.90;2252.80
55008;DHT22;40902;45.116;21.296;2023-03-12T09:12:28;153.90;2252.80
55008;DHT22;40902;45.116;21.296;2023-03-12T09:14:54;153.90;2252.80
55008;DHT22;40902;45.116;21.296;2023-03-12T09:17:20;153.70;2252.80
55008;DHT22;40902;45.116;21.296;2023-03-12T09:19:46;153.90;2252.80
55008;DHT22;40902;45.116;21.296;2023-03-12T09:22:11;153.80;2252.80
55008;DHT22;40902;45.116;21.296;2023-03-12T09:24:37;153.90;2252.80
55008;DHT22;40902;45.116;21.296;2023-03-12T09:27:03;154.00;2252.80
55008;DHT22;40902;45.116;21.296;2023-03-12T09:29:30;153.90;2252.80
55008;DHT22;40902;45.116;21.296;2023-03-12T09:31:55;154.10;2252.80
55008;DHT22;40902;45.116;21.296;2023-03-12T09:34:21;154.10;2252.80
55008;DHT22;40902;45.116;21.296;2023-03-12T09:36:47;154.30;2252.80
55008;DHT22;40902;45.116;21.296;2023-03-12T09:39:13;179.20;2252.80
55008;DHT22;40902;45.116;21.296;2023-03-12T09:41:40;179.20;2252.80
55008;DHT22;40902;45.116;21.296;2023-03-12T09:44:14;179.20;2252.80
55008;DHT22;40902;45.116;21.296;2023-03-12T09:46:53;179.20;2252.80
55008;DHT22;40902;45.116;21.296;2023-03-12T09:54:51;179.30;2252.80
55008;DHT22;40902;45.116;21.296;2023-03-12T09:57:22;154.50;2252.80
55008;DHT22;40902;45.116;21.296;2023-03-12T09:59:50;179.30;2252.80
55008;DHT22;40902;45.116;21.296;2023-03-12T10:05:37;179.30;2252.80
55008;DHT22;40902;45.116;21.296;2023-03-12T10:08:14;179.40;2252.80
55008;DHT22;40902;45.116;21.296;2023-03-12T10:10:54;179.30;2252.80
55008;DHT22;40902;45.116;21.296;2023-03-12T10:24:18;179.60;2252.80
55008;DHT22;40902;45.116;21.296;2023-03-12T10:26:50;179.80;2252.80
55008;DHT22;40902;45.116;21.296;2023-03-12T10:29:31;179.50;2252.80
55008;DHT22;40902;45.116;21.296;2023-03-12T10:32:11;179.40;2252.80
55008;DHT22;40902;45.116;21.296;2023-03-12T10:37:32;179.50;2252.80
55008;DHT22;40902;45.116;21.296;2023-03-12T10:39:58;179.70;2252.80
55008;DHT22;40902;45.116;21.296;2023-03-12T10:42:29;179.70;2252.80
55008;DHT22;40902;45.116;21.296;2023-03-12T10:45:12;179.80;2252.80
55008;DHT22;40902;45.116;21.296;2023-03-12T10:47:42;179.70;2252.80
55008;DHT22;40902;45.116;21.296;2023-03-12T10:50:24;179.90;2252.80
55008;DHT22;40902;45.116;21.296;2023-03-12T10:52:52;180.10;2252.80
55008;DHT22;40902;45.116;21.296;2023-03-12T10:57:49;204.90;2252.80
55008;DHT22;40902;45.116;21.296;2023-03-12T11:00:24;205.00;2252.80
55008;DHT22;40902;45.116;21.296;2023-03-12T11:03:02;205.10;2252.80
55008;DHT22;40902;45.116;21.296;2023-03-12T11:05:29;205.10;2252.80
55008;DHT22;40902;45.116;21.296;2023-03-12T11:07:56;205.00;2252.80
55008;DHT22;40902;45.116;21.296;2023-03-12T11:10:41;205.00;2252.80
55008;DHT22;40902;45.116;21.296;2023-03-12T11:13:29;205.00;2252.80
55008;DHT22;40902;45.116;21.296;2023-03-12T11:15:57;204.90;2252.80
55008;DHT22;40902;45.116;21.296;2023-03-12T11:18:28;204.90;2252.80
55008;DHT22;40902;45.116;21.296;2023-03-12T11:21:17;205.10;2252.80
55008;DHT22;40902;45.116;21.296;2023-03-12T11:24:05;205.30;2252.80
55008;DHT22;40902;45.116;21.296;2023-03-12T11:26:43;205.60;2252.80
55008;DHT22;40902;45.116;21.296;2023-03-12T11:32:23;230.40;2252.80
55008;DHT22;40902;45.116;21.296;2023-03-12T11:34:53;205.70;2252.80
55008;DHT22;40902;45.116;21.296;2023-03-12T11:37:30;205.60;2252.80
55008;DHT22;40902;45.116;21.296;2023-03-12T11:40:26;205.70;2252.80
55008;DHT22;40902;45.116;21.296;2023-03-12T11:56:28;205.40;2252.80
55008;DHT22;40902;45.116;21.296;2023-03-12T12:08:08;205.30;2252.80
55008;DHT22;40902;45.116;21.296;2023-03-12T12:11:01;205.20;2252.80
55008;DHT22;40902;45.116;21.296;2023-03-12T12:13:35;205.20;2252.80
55008;DHT22;40902;45.116;21.296;2023-03-12T12:18:40;205.30;2252.80
55008;DHT22;40902;45.116;21.296;2023-03-12T12:24:06;205.10;2252.80
55008;DHT22;40902;45.116;21.296;2023-03-12T12:37:57;205.50;2252.80
55008;DHT22;40902;45.116;21.296;2023-03-12T12:40:35;205.50;2252.80
55008;DHT22;40902;45.116;21.296;2023-03-12T12:45:50;205.50;2252.80
55008;DHT22;40902;45.116;21.296;2023-03-12T12:48:43;205.60;2252.80
55008;DHT22;40902;45.116;21.296;2023-03-12T12:51:12;205.30;2252.80
55008;DHT22;40902;45.116;21.296;2023-03-12T12:56:08;205.50;2252.80
55008;DHT22;40902;45.116;21.296;2023-03-12T13:01:15;205.30;2252.80
55008;DHT22;40902;45.116;21.296;2023-03-12T13:03:42;205.50;2252.80
55008;DHT22;40902;45.116;21.296;2023-03-12T13:06:08;205.70;2252.80
55008;DHT22;40902;45.116;21.296;2023-03-12T13:13:43;230.40;2252.80
55008;DHT22;40902;45.116;21.296;2023-03-12T13:16:31;205.60;2252.80
55008;DHT22;40902;45.116;21.296;2023-03-12T13:19:00;205.60;2252.80
55008;DHT22;40902;45.116;21.296;2023-03-12T13:25:25;230.40;2252.80
55008;DHT22;40902;45.116;21.296;2023-03-12T13:27:38;230.50;2227.20
55008;DHT22;40902;45.116;21.296;2023-03-12T13:43:29;230.40;2150.40
55008;DHT22;40902;45.116;21.296;2023-03-12T13:48:44;230.50;2176.00
55008;DHT22;40902;45.116;21.296;2023-03-12T13:51:22;230.50;2176.00
55008;DHT22;40902;45.116;21.296;2023-03-12T13:53:52;230.40;2176.00
55008;DHT22;40902;45.116;21.296;2023-03-12T13:56:24;230.50;2176.00
55008;DHT22;40902;45.116;21.296;2023-03-12T13:58:58;230.40;2176.00
55008;DHT22;40902;45.116;21.296;2023-03-12T14:01:39;230.40;2227.20
55008;DHT22;40902;45.116;21.296;2023-03-12T14:04:11;205.70;2201.60
55008;DHT22;40902;45.116;21.296;2023-03-12T14:07:23;205.70;2252.80
55008;DHT22;40902;45.116;21.296;2023-03-12T14:15:40;205.70;2201.60
55008;DHT22;40902;45.116;21.296;2023-03-12T14:18:20;205.60;2227.20
55008;DHT22;40902;45.116;21.296;2023-03-12T14:20:56;205.50;2227.20
55008;DHT22;40902;45.116;21.296;2023-03-12T14:23:28;205.50;2201.60
55008;DHT22;40902;45.116;21.296;2023-03-12T14:25:58;205.50;2227.20
55008;DHT22;40902;45.116;21.296;2023-03-12T14:28:26;205.50;2201.60
55008;DHT22;40902;45.116;21.296;2023-03-12T14:31:02;205.30;2201.60
55008;DHT22;40902;45.116;21.296;2023-03-12T14:36:57;205.30;2227.20
55008;DHT22;40902;45.116;21.296;2023-03-12T14:39:34;205.30;2176.00
55008;DHT22;40902;45.116;21.296;2023-03-12T14:42:20;205.20;2201.60
55008;DHT22;40902;45.116;21.296;2023-03-12T14:45:15;205.20;2227.20
55008;DHT22;40902;45.116;21.296;2023-03-12T14:47:46;205.30;2176.00
55008;DHT22;40902;45.116;21.296;2023-03-12T14:52:49;205.60;2150.40
55008;DHT22;40902;45.116;21.296;2023-03-12T14:55:20;205.70;2201.60
55008;DHT22;40902;45.116;21.296;2023-03-12T14:57:47;205.50;2150.40
55008;DHT22;40902;45.116;21.296;2023-03-12T15:02:47;205.50;2201.60
55008;DHT22;40902;45.116;21.296;2023-03-12T15:05:18;205.40;2176.00
55008;DHT22;40902;45.116;21.296;2023-03-12T15:07:45;205.10;2201.60
55008;DHT22;40902;45.116;21.296;2023-03-12T15:10:21;205.20;2176.00
55008;DHT22;40902;45.116;21.296;2023-03-12T15:12:48;205.10;2201.60
55008;DHT22;40902;45.116;21.296;2023-03-12T15:17:49;205.20;2201.60
55008;DHT22;40902;45.116;21.296;2023-03-12T15:20:16;205.30;2201.60
55008;DHT22;40902;45.116;21.296;2023-03-12T15:22:43;205.30;2201.60
55008;DHT22;40902;45.116;21.296;2023-03-12T15:25:27;205.20;2176.00
55008;DHT22;40902;45.116;21.296;2023-03-12T15:31:07;205.10;2201.60
55008;DHT22;40902;45.116;21.296;2023-03-12T15:33:34;205.00;2252.80
55008;DHT22;40902;45.116;21.296;2023-03-12T15:38:33;205.20;2201.60
55008;DHT22;40902;45.116;21.296;2023-03-12T15:41:05;205.10;2176.00
55008;DHT22;40902;45.116;21.296;2023-03-12T15:43:31;205.00;2176.00
55008;DHT22;40902;45.116;21.296;2023-03-12T15:46:02;205.00;2227.20
55008;DHT22;40902;45.116;21.296;2023-03-12T15:48:36;204.90;2201.60
55008;DHT22;40902;45.116;21.296;2023-03-12T15:51:09;204.90;2252.80
55008;DHT22;40902;45.116;21.296;2023-03-12T15:53:37;204.90;2227.20
55008;DHT22;40902;45.116;21.296;2023-03-12T15:56:20;204.90;2252.80
55008;DHT22;40902;45.116;21.296;2023-03-12T15:58:46;204.90;2252.80
55008;DHT22;40902;45.116;21.296;2023-03-12T16:01:22;204.90;2252.80
55008;DHT22;40902;45.116;21.296;2023-03-12T16:03:52;204.90;2252.80
55008;DHT22;40902;45.116;21.296;2023-03-12T16:06:20;204.90;2252.80
55008;DHT22;40902;45.116;21.296;2023-03-12T16:08:50;204.90;2252.80
55008;DHT22;40902;45.116;21.296;2023-03-12T16:11:21;205.00;2252.80
55008;DHT22;40902;45.116;21.296;2023-03-12T16:13:49;204.90;2252.80
55008;DHT22;40902;45.116;21.296;2023-03-12T16:16:16;205.00;2252.80
55008;DHT22;40902;45.116;21.296;2023-03-12T16:18:42;205.00;2252.80
55008;DHT22;40902;45.116;21.296;2023-03-12T16:21:08;205.00;2252.80
55008;DHT22;40902;45.116;21.296;2023-03-12T16:23:35;205.00;2252.80
55008;DHT22;40902;45.116;21.296;2023-03-12T16:26:03;204.90;2252.80
55008;DHT22;40902;45.116;21.296;2023-03-12T16:28:29;205.00;2252.80
55008;DHT22;40902;45.116;21.296;2023-03-12T16:30:55;205.00;2252.80
55008;DHT22;40902;45.116;21.296;2023-03-12T16:33:23;205.00;2252.80
55008;DHT22;40902;45.116;21.296;2023-03-12T16:35:49;204.90;2252.80
55008;DHT22;40902;45.116;21.296;2023-03-12T16:38:15;204.90;2252.80
55008;DHT22;40902;45.116;21.296;2023-03-12T16:40:46;204.90;2252.80
55008;DHT22;40902;45.116;21.296;2023-03-12T16:43:23;204.90;2252.80
55008;DHT22;40902;45.116;21.296;2023-03-12T16:45:51;204.90;2252.80
55008;DHT22;40902;45.116;21.296;2023-03-12T16:48:20;204.90;2252.80
55008;DHT22;40902;45.116;21.296;2023-03-12T16:50:55;204.90;2252.80
55008;DHT22;40902;45.116;21.296;2023-03-12T16:53:22;204.90;2252.80
55008;DHT22;40902;45.116;21.296;2023-03-12T16:55:58;204.90;2252.80
55008;DHT22;40902;45.116;21.296;2023-03-12T16:58:26;204.80;2252.80
55008;DHT22;40902;45.116;21.296;2023-03-12T17:00:53;204.90;2252.80
55008;DHT22;40902;45.116;21.296;2023-03-12T17:05:51;204.80;2227.20
55008;DHT22;40902;45.116;21.296;2023-03-12T17:08:16;204.80;2252.80
55008;DHT22;40902;45.116;21.296;2023-03-12T17:10:42;204.90;2252.80
55008;DHT22;40902;45.116;21.296;2023-03-12T17:13:18;204.90;2201.60
55008;DHT22;40902;45.116;21.296;2023-03-12T17:15:45;204.90;2227.20
55008;DHT22;40902;45.116;21.296;2023-03-12T17:18:12;204.90;2252.80
55008;DHT22;40902;45.116;21.296;2023-03-12T17:20:38;204.80;2252.80
55008;DHT22;40902;45.116;21.296;2023-03-12T17:23:04;204.80;2252.80
55008;DHT22;40902;45.116;21.296;2023-03-12T17:25:33;204.80;2252.80
55008;DHT22;40902;45.116;21.296;2023-03-12T17:27:59;204.80;2252.80
55008;DHT22;40902;45.116;21.296;2023-03-12T17:30:27;180.10;2252.80
55008;DHT22;40902;45.116;21.296;2023-03-12T17:33:00;180.10;2252.80
55008;DHT22;40902;45.116;21.296;2023-03-12T17:35:26;180.00;2252.80
55008;DHT22;40902;45.116;21.296;2023-03-12T17:37:52;180.00;2252.80
55008;DHT22;40902;45.116;21.296;2023-03-12T17:40:18;179.90;2252.80
55008;DHT22;40902;45.116;21.296;2023-03-12T17:42:43;179.90;2252.80
55008;DHT22;40902;45.116;21.296;2023-03-12T17:45:10;179.80;2252.80
55008;DHT22;40902;45.116;21.296;2023-03-12T17:47:36;179.70;2252.80
55008;DHT22;40902;45.116;21.296;2023-03-12T17:50:03;179.70;2252.80
55008;DHT22;40902;45.116;21.296;2023-03-12T17:52:30;179.70;2252.80
55008;DHT22;40902;45.116;21.296;2023-03-12T17:54:56;179.60;2252.80